sensor_id;sensor_type;location;lat;lon;timestamp;temperature;humidity
4725;DHT22;2376;53.544;10.226;2023-07-02T00:01:43;16.50;99.90
4725;DHT22;2376;53.544;10.226;2023-07-02T00:04:10;16.50;99.90
4725;DHT22;2376;53.544;10.226;2023-07-02T00:06:39;16.50;99.90
4725;DHT22;2376;53.544;10.226;2023-07-02T00:09:05;16.40;99.90
4725;DHT22;2376;53.544;10.226;2023-07-02T00:11:32;16.40;99.90
4725;DHT22;2376;53.544;10.226;2023-07-02T00:13:59;16.40;99.90
4725;DHT22;2376;53.544;10.226;2023-07-02T00:16:26;16.40;99.90
4725;DHT22;2376;53.544;10.226;2023-07-02T00:18:54;16.30;99.90
4725;DHT22;2376;53.544;10.226;2023-07-02T00:21:20;16.20;99.90
4725;DHT22;2376;53.544;10.226;2023-07-02T00:23:47;16.20;99.90
4725;DHT22;2376;53.544;10.226;2023-07-02T00:26:14;16.20;99.90
4725;DHT22;2376;53.544;10.226;2023-07-02T00:28:40;16.20;99.90
4725;DHT22;2376;53.544;10.226;2023-07-02T00:31:07;16.20;99.90
4725;DHT22;2376;53.544;10.226;2023-07-02T00:33:34;16.10;99.90
4725;DHT22;2376;53.544;10.226;2023-07-02T00:36:02;16.10;99.90
4725;DHT22;2376;53.544;10.226;2023-07-02T00:38:28;16.10;99.90
4725;DHT22;2376;53.544;10.226;2023-07-02T00:40:55;16.10;99.90
4725;DHT22;2376;53.544;10.226;2023-07-02T00:43:22;16.00;99.90
4725;DHT22;2376;53.544;10.226;2023-07-02T00:45:49;16.00;99.90
4725;DHT22;2376;53.544;10.226;2023-07-02T00:48:16;16.10;99.90
4725;DHT22;2376;53.544;10.226;2023-07-02T00:50:43;16.00;99.90
4725;DHT22;2376;53.544;10.226;2023-07-02T00:53:11;16.00;99.90
4725;DHT22;2376;53.544;10.226;2023-07-02T00:55:37;16.10;99.90
4725;DHT22;2376;53.544;10.226;2023-07-02T00:58:04;16.00;99.90
4725;DHT22;2376;53.544;10.226;2023-07-02T01:00:32;16.00;99.90
4725;DHT22;2376;53.544;10.226;2023-07-02T01:02:59;16.00;99.90
4725;DHT22;2376;53.544;10.226;2023-07-02T01:05:26;16.00;99.90
4725;DHT22;2376;53.544;10.226;2023-07-02T01:07:57;16.00;99.90
4725;DHT22;2376;53.544;10.226;2023-07-02T01:10:25;16.00;99.90
4725;DHT22;2376;53.544;10.226;2023-07-02T01:12:52;16.00;99.90
4725;DHT22;2376;53.544;10.226;2023-07-02T01:15:19;16.00;99.90
4725;DHT22;2376;53.544;10.226;2023-07-02T01:17:47;16.00;99.90
4725;DHT22;2376;53.544;10.226;2023-07-02T01:20:15;16.10;99.90
4725;DHT22;2376;53.544;10.226;2023-07-02T01:22:42;16.10;99.90
4725;DHT22;2376;53.544;10.226;2023-07-02T01:25:09;16.10;99.90
4725;DHT22;2376;53.544;10.226;2023-07-02T01:27:35;16.20;99.90
4725;DHT22;2376;53.544;10.226;2023-07-02T01:30:02;16.20;99.90
4725;DHT22;2376;53.544;10.226;2023-07-02T01:32:29;16.20;99.90
4725;DHT22;2376;53.544;10.226;2023-07-02T01:34:56;16.20;99.90
4725;DHT22;2376;53.544;10.226;2023-07-02T01:37:25;16.20;99.90
4725;DHT22;2376;53.544;10.226;2023-07-02T01:39:52;16.20;99.90
4725;DHT22;2376;53.544;10.226;2023-07-02T01:42:19;16.10;99.90
4725;DHT22;2376;53.544;10.226;2023-07-02T01:44:47;16.10;99.90
4725;DHT22;2376;53.544;10.226;2023-07-02T01:47:14;16.10;99.90
4725;DHT22;2376;53.544;10.226;2023-07-02T01:49:41;16.10;99.90
4725;DHT22;2376;53.544;10.226;2023-07-02T01:52:07;16.20;99.90
4725;DHT22;2376;53.544;10.226;2023-07-02T01:54:36;16.10;99.90
4725;DHT22;2376;53.544;10.226;2023-07-02T01:57:03;16.20;99.90
4725;DHT22;2376;53.544;10.226;2023-07-02T01:59:30;16.20;99.90
4725;DHT22;2376;53.544;10.226;2023-07-02T02:01:56;16.20;99.90
4725;DHT22;2376;53.544;10.226;2023-07-02T02:04:23;16.20;99.90
4725;DHT22;2376;53.544;10.226;2023-07-02T02:06:50;16.10;99.90
4725;DHT22;2376;53.544;10.226;2023-07-02T02:09:18;16.10;99.90
4725;DHT22;2376;53.544;10.226;2023-07-02T02:11:49;16.10;99.90
4725;DHT22;2376;53.544;10.226;2023-07-02T02:14:17;16.10;99.90
4725;DHT22;2376;53.544;10.226;2023-07-02T02:16:44;16.10;99.90
4725;DHT22;2376;53.544;10.226;2023-07-02T02:19:12;16.10;99.90
4725;DHT22;2376;53.544;10.226;2023-07-02T02:21:40;16.10;99.90
4725;DHT22;2376;53.544;10.226;2023-07-02T02:24:07;16.00;99.90
4725;DHT22;2376;53.544;10.226;2023-07-02T02:26:33;16.10;99.90
4725;DHT22;2376;53.544;10.226;2023-07-02T02:29:02;16.00;99.90
4725;DHT22;2376;53.544;10.226;2023-07-02T02:31:28;16.00;99.90
4725;DHT22;2376;53.544;10.226;2023-07-02T02:33:56;16.00;99.90
4725;DHT22;2376;53.544;10.226;2023-07-02T02:36:23;16.00;99.90
4725;DHT22;2376;53.544;10.226;2023-07-02T02:38:49;16.00;99.90
4725;DHT22;2376;53.544;10.226;2023-07-02T02:41:16;16.00;99.90
4725;DHT22;2376;53.544;10.226;2023-07-02T02:43:43;16.00;99.90
4725;DHT22;2376;53.544;10.226;2023-07-02T02:46:11;15.90;99.90
4725;DHT22;2376;53.544;10.226;2023-07-02T02:48:38;16.00;99.90
4725;DHT22;2376;53.544;10.226;2023-07-02T02:51:04;15.90;99.90
4725;DHT22;2376;53.544;10.226;2023-07-02T02:53:31;15.90;99.90
4725;DHT22;2376;53.544;10.226;2023-07-02T02:55:58;15.90;99.90
4725;DHT22;2376;53.544;10.226;2023-07-02T02:58:24;15.90;99.90
4725;DHT22;2376;53.544;10.226;2023-07-02T03:00:53;15.90;99.90
4725;DHT22;2376;53.544;10.226;2023-07-02T03:03:21;15.90;99.90
4725;DHT22;2376;53.544;10.226;2023-07-02T03:05:49;15.90;99.90
4725;DHT22;2376;53.544;10.226;2023-07-02T03:08:16;15.90;99.90
4725;DHT22;2376;53.544;10.226;2023-07-02T03:10:43;15.90;99.90
4725;DHT22;2376;53.544;10.226;2023-07-02T03:13:10;15.90;99.90
4725;DHT22;2376;53.544;10.226;2023-07-02T03:15:36;15.90;99.90
4725;DHT22;2376;53.544;10.226;2023-07-02T03:18:03;15.90;99.90
4725;DHT22;2376;53.544;10.226;2023-07-02T03:20:31;15.90;99.90
4725;DHT22;2376;53.544;10.226;2023-07-02T03:22:58;15.90;99.90
4725;DHT22;2376;53.544;10.226;2023-07-02T03:25:24;15.90;99.90
4725;DHT22;2376;53.544;10.226;2023-07-02T03:27:51;15.90;99.90
4725;DHT22;2376;53.544;10.226;2023-07-02T03:30:18;15.90;99.90
4725;DHT22;2376;53.544;10.226;2023-07-02T03:32:45;15.90;99.90
4725;DHT22;2376;53.544;10.226;2023-07-02T03:35:11;15.90;99.90
4725;DHT22;2376;53.544;10.226;2023-07-02T03:37:39;15.90;99.90
4725;DHT22;2376;53.544;10.226;2023-07-02T03:40:08;15.90;99.90
4725;DHT22;2376;53.544;10.226;2023-07-02T03:42:35;15.90;99.90
4725;DHT22;2376;53.544;10.226;2023-07-02T03:45:01;15.90;99.90
4725;DHT22;2376;53.544;10.226;2023-07-02T03:47:29;15.90;99.90
4725;DHT22;2376;53.544;10.226;2023-07-02T03:49:55;15.90;99.90
4725;DHT22;2376;53.544;10.226;2023-07-02T03:52:22;15.90;99.90
4725;DHT22;2376;53.544;10.226;2023-07-02T03:54:50;15.90;99.90
4725;DHT22;2376;53.544;10.226;2023-07-02T03:57:17;15.90;99.90
4725;DHT22;2376;53.544;10.226;2023-07-02T03:59:43;15.90;99.90
4725;DHT22;2376;53.544;10.226;2023-07-02T04:02:10;15.90;99.90
4725;DHT22;2376;53.544;10.226;2023-07-02T04:04:37;15.90;99.90
4725;DHT22;2376;53.544;10.226;2023-07-02T04:07:04;16.00;99.90
4725;DHT22;2376;53.544;10.226;2023-07-02T04:09:31;16.00;99.90
4725;DHT22;2376;53.544;10.226;2023-07-02T04:11:59;16.00;99.90
4725;DHT22;2376;53.544;10.226;2023-07-02T04:14:26;16.00;99.90
4725;DHT22;2376;53.544;10.226;2023-07-02T04:16:53;16.00;99.90
4725;DHT22;2376;53.544;10.226;2023-07-02T04:19:19;16.00;99.90
4725;DHT22;2376;53.544;10.226;2023-07-02T04:21:46;16.00;99.90
4725;DHT22;2376;53.544;10.226;2023-07-02T04:24:13;16.00;99.90
4725;DHT22;2376;53.544;10.226;2023-07-02T04:26:40;16.00;99.90
4725;DHT22;2376;53.544;10.226;2023-07-02T04:29:09;16.00;99.90
4725;DHT22;2376;53.544;10.226;2023-07-02T04:31:36;16.00;99.90
4725;DHT22;2376;53.544;10.226;2023-07-02T04:34:03;16.00;99.90
4725;DHT22;2376;53.544;10.226;2023-07-02T04:36:31;16.00;99.90
4725;DHT22;2376;53.544;10.226;2023-07-02T04:38:58;16.00;99.90
4725;DHT22;2376;53.544;10.226;2023-07-02T04:41:25;16.00;99.90
4725;DHT22;2376;53.544;10.226;2023-07-02T04:43:52;16.00;99.90
4725;DHT22;2376;53.544;10.226;2023-07-02T04:46:20;16.10;99.90
4725;DHT22;2376;53.544;10.226;2023-07-02T04:48:46;16.00;99.90
4725;DHT22;2376;53.544;10.226;2023-07-02T04:51:13;16.10;99.90
4725;DHT22;2376;53.544;10.226;2023-07-02T04:53:40;16.10;99.90
4725;DHT22;2376;53.544;10.226;2023-07-02T04:56:07;16.00;99.90
4725;DHT22;2376;53.544;10.226;2023-07-02T04:58:34;16.00;99.90
4725;DHT22;2376;53.544;10.226;2023-07-02T05:01:00;16.00;99.90
4725;DHT22;2376;53.544;10.226;2023-07-02T05:03:28;16.00;99.90
4725;DHT22;2376;53.544;10.226;2023-07-02T05:05:55;16.10;99.90
4725;DHT22;2376;53.544;10.226;2023-07-02T05:08:22;16.10;99.90
4725;DHT22;2376;53.544;10.226;2023-07-02T05:10:48;16.10;99.90
4725;DHT22;2376;53.544;10.226;2023-07-02T05:13:15;16.10;99.90
4725;DHT22;2376;53.544;10.226;2023-07-02T05:15:42;16.10;99.90
4725;DHT22;2376;53.544;10.226;2023-07-02T05:18:08;16.20;99.90
4725;DHT22;2376;53.544;10.226;2023-07-02T05:20:37;16.20;99.90
4725;DHT22;2376;53.544;10.226;2023-07-02T05:23:03;16.10;99.90
4725;DHT22;2376;53.544;10.226;2023-07-02T05:25:30;16.10;99.90
4725;DHT22;2376;53.544;10.226;2023-07-02T05:27:58;16.10;99.90
4725;DHT22;2376;53.544;10.226;2023-07-02T05:30:24;16.20;99.90
4725;DHT22;2376;53.544;10.226;2023-07-02T05:32:51;16.20;99.90
4725;DHT22;2376;53.544;10.226;2023-07-02T05:35:18;16.20;99.90
4725;DHT22;2376;53.544;10.226;2023-07-02T05:37:46;16.10;99.90
4725;DHT22;2376;53.544;10.226;2023-07-02T05:40:12;16.20;99.90
4725;DHT22;2376;53.544;10.226;2023-07-02T05:42:39;16.30;99.90
4725;DHT22;2376;53.544;10.226;2023-07-02T05:45:08;16.30;99.90
4725;DHT22;2376;53.544;10.226;2023-07-02T05:47:35;16.40;99.90
4725;DHT22;2376;53.544;10.226;2023-07-02T05:50:06;16.30;99.90
4725;DHT22;2376;53.544;10.226;2023-07-02T05:52:33;16.30;99.90
4725;DHT22;2376;53.544;10.226;2023-07-02T05:55:01;16.30;99.90
4725;DHT22;2376;53.544;10.226;2023-07-02T05:57:28;16.30;99.90
4725;DHT22;2376;53.544;10.226;2023-07-02T05:59:54;16.30;99.90
4725;DHT22;2376;53.544;10.226;2023-07-02T06:02:21;16.30;99.90
4725;DHT22;2376;53.544;10.226;2023-07-02T06:04:48;16.40;99.90
4725;DHT22;2376;53.544;10.226;2023-07-02T06:07:14;16.40;99.90
4725;DHT22;2376;53.544;10.226;2023-07-02T06:09:41;16.40;99.90
4725;DHT22;2376;53.544;10.226;2023-07-02T06:12:10;16.40;99.90
4725;DHT22;2376;53.544;10.226;2023-07-02T06:14:36;16.50;99.90
4725;DHT22;2376;53.544;10.226;2023-07-02T06:17:03;16.50;99.90
4725;DHT22;2376;53.544;10.226;2023-07-02T06:19:31;16.60;99.90
4725;DHT22;2376;53.544;10.226;2023-07-02T06:21:58;16.60;99.90
4725;DHT22;2376;53.544;10.226;2023-07-02T06:24:25;16.60;99.90
4725;DHT22;2376;53.544;10.226;2023-07-02T06:26:52;16.60;99.90
4725;DHT22;2376;53.544;10.226;2023-07-02T06:29:22;16.60;99.90
4725;DHT22;2376;53.544;10.226;2023-07-02T06:31:48;16.70;99.90
4725;DHT22;2376;53.544;10.226;2023-07-02T06:34:15;16.70;99.90
4725;DHT22;2376;53.544;10.226;2023-07-02T06:36:42;16.70;99.90
4725;DHT22;2376;53.544;10.226;2023-07-02T06:39:09;16.80;99.90
4725;DHT22;2376;53.544;10.226;2023-07-02T06:41:36;16.80;99.90
4725;DHT22;2376;53.544;10.226;2023-07-02T06:44:03;16.80;99.90
4725;DHT22;2376;53.544;10.226;2023-07-02T06:46:31;16.90;99.90
4725;DHT22;2376;53.544;10.226;2023-07-02T06:48:57;17.00;99.90
4725;DHT22;2376;53.544;10.226;2023-07-02T06:51:24;17.00;99.90
4725;DHT22;2376;53.544;10.226;2023-07-02T06:53:52;17.00;99.90
4725;DHT22;2376;53.544;10.226;2023-07-02T06:56:19;17.20;99.90
4725;DHT22;2376;53.544;10.226;2023-07-02T06:58:45;17.20;99.90
4725;DHT22;2376;53.544;10.226;2023-07-02T07:01:12;17.30;99.90
4725;DHT22;2376;53.544;10.226;2023-07-02T07:03:40;17.30;99.90
4725;DHT22;2376;53.544;10.226;2023-07-02T07:06:07;17.40;99.90
4725;DHT22;2376;53.544;10.226;2023-07-02T07:08:37;17.40;99.90
4725;DHT22;2376;53.544;10.226;2023-07-02T07:11:04;17.50;99.90
4725;DHT22;2376;53.544;10.226;2023-07-02T07:13:30;17.50;99.90
4725;DHT22;2376;53.544;10.226;2023-07-02T07:15:57;17.60;99.90
4725;DHT22;2376;53.544;10.226;2023-07-02T07:18:24;17.70;99.90
4725;DHT22;2376;53.544;10.226;2023-07-02T07:20:52;17.80;99.90
4725;DHT22;2376;53.544;10.226;2023-07-02T07:23:19;17.90;99.90
4725;DHT22;2376;53.544;10.226;2023-07-02T07:25:45;17.90;99.90
4725;DHT22;2376;53.544;10.226;2023-07-02T07:28:12;17.90;99.90
4725;DHT22;2376;53.544;10.226;2023-07-02T07:30:41;18.00;99.90
4725;DHT22;2376;53.544;10.226;2023-07-02T07:33:08;18.10;99.90
4725;DHT22;2376;53.544;10.226;2023-07-02T07:35:34;18.10;99.90
4725;DHT22;2376;53.544;10.226;2023-07-02T07:38:02;18.10;99.90
4725;DHT22;2376;53.544;10.226;2023-07-02T07:40:29;18.10;99.90
4725;DHT22;2376;53.544;10.226;2023-07-02T07:42:56;18.10;99.90
4725;DHT22;2376;53.544;10.226;2023-07-02T07:45:23;18.00;99.90
4725;DHT22;2376;53.544;10.226;2023-07-02T07:47:49;18.00;99.90
4725;DHT22;2376;53.544;10.226;2023-07-02T07:50:16;17.90;99.90
4725;DHT22;2376;53.544;10.226;2023-07-02T07:52:43;17.90;99.90
4725;DHT22;2376;53.544;10.226;2023-07-02T07:55:11;17.70;99.90
4725;DHT22;2376;53.544;10.226;2023-07-02T07:57:38;17.70;99.90
4725;DHT22;2376;53.544;10.226;2023-07-02T08:00:06;17.80;99.90
4725;DHT22;2376;53.544;10.226;2023-07-02T08:02:34;17.80;99.90
4725;DHT22;2376;53.544;10.226;2023-07-02T08:05:01;17.90;99.90
4725;DHT22;2376;53.544;10.226;2023-07-02T08:07:30;17.90;99.90
4725;DHT22;2376;53.544;10.226;2023-07-02T08:09:57;18.00;99.90
4725;DHT22;2376;53.544;10.226;2023-07-02T08:12:25;18.00;99.90
4725;DHT22;2376;53.544;10.226;2023-07-02T08:14:54;18.00;99.90
4725;DHT22;2376;53.544;10.226;2023-07-02T08:17:20;18.10;99.90
4725;DHT22;2376;53.544;10.226;2023-07-02T08:19:47;18.20;99.90
4725;DHT22;2376;53.544;10.226;2023-07-02T08:22:14;18.30;99.90
4725;DHT22;2376;53.544;10.226;2023-07-02T08:24:41;18.30;99.90
4725;DHT22;2376;53.544;10.226;2023-07-02T08:27:08;18.40;99.90
4725;DHT22;2376;53.544;10.226;2023-07-02T08:29:37;18.50;99.90
4725;DHT22;2376;53.544;10.226;2023-07-02T08:32:04;18.70;99.90
4725;DHT22;2376;53.544;10.226;2023-07-02T08:34:30;18.80;99.90
4725;DHT22;2376;53.544;10.226;2023-07-02T08:36:57;19.00;99.90
4725;DHT22;2376;53.544;10.226;2023-07-02T08:39:24;19.10;99.90
4725;DHT22;2376;53.544;10.226;2023-07-02T08:41:51;19.20;99.90
4725;DHT22;2376;53.544;10.226;2023-07-02T08:44:20;19.10;99.90
4725;DHT22;2376;53.544;10.226;2023-07-02T08:46:49;19.10;99.90
4725;DHT22;2376;53.544;10.226;2023-07-02T08:49:18;19.00;99.90
4725;DHT22;2376;53.544;10.226;2023-07-02T08:51:46;18.80;99.90
4725;DHT22;2376;53.544;10.226;2023-07-02T08:54:13;18.80;99.90
4725;DHT22;2376;53.544;10.226;2023-07-02T08:56:40;18.90;99.90
4725;DHT22;2376;53.544;10.226;2023-07-02T08:59:07;19.00;99.90
4725;DHT22;2376;53.544;10.226;2023-07-02T09:01:44;19.10;99.90
4725;DHT22;2376;53.544;10.226;2023-07-02T09:04:16;19.20;99.90
4725;DHT22;2376;53.544;10.226;2023-07-02T09:06:43;19.30;99.90
4725;DHT22;2376;53.544;10.226;2023-07-02T09:09:10;19.40;99.90
4725;DHT22;2376;53.544;10.226;2023-07-02T09:11:46;19.40;99.90
4725;DHT22;2376;53.544;10.226;2023-07-02T09:14:24;19.40;99.90
4725;DHT22;2376;53.544;10.226;2023-07-02T09:17:04;19.50;99.90
4725;DHT22;2376;53.544;10.226;2023-07-02T09:19:33;19.60;99.90
4725;DHT22;2376;53.544;10.226;2023-07-02T09:22:00;19.70;98.70
4725;DHT22;2376;53.544;10.226;2023-07-02T09:24:28;19.70;96.50
4725;DHT22;2376;53.544;10.226;2023-07-02T09:26:57;19.70;98.30
4725;DHT22;2376;53.544;10.226;2023-07-02T09:29:24;19.80;97.80
4725;DHT22;2376;53.544;10.226;2023-07-02T09:31:53;19.70;97.40
4725;DHT22;2376;53.544;10.226;2023-07-02T09:34:27;19.70;97.40
4725;DHT22;2376;53.544;10.226;2023-07-02T09:36:55;19.40;98.70
4725;DHT22;2376;53.544;10.226;2023-07-02T09:39:27;19.30;99.90
4725;DHT22;2376;53.544;10.226;2023-07-02T09:41:55;19.10;99.90
4725;DHT22;2376;53.544;10.226;2023-07-02T09:44:25;18.90;99.90
4725;DHT22;2376;53.544;10.226;2023-07-02T09:46:58;18.80;99.90
4725;DHT22;2376;53.544;10.226;2023-07-02T09:49:25;18.50;99.90
4725;DHT22;2376;53.544;10.226;2023-07-02T09:51:54;18.40;99.90
4725;DHT22;2376;53.544;10.226;2023-07-02T09:54:21;18.20;99.90
4725;DHT22;2376;53.544;10.226;2023-07-02T09:56:48;18.30;99.90
4725;DHT22;2376;53.544;10.226;2023-07-02T09:59:15;18.30;99.90
4725;DHT22;2376;53.544;10.226;2023-07-02T10:01:42;18.40;99.90
4725;DHT22;2376;53.544;10.226;2023-07-02T10:04:13;18.40;99.90
4725;DHT22;2376;53.544;10.226;2023-07-02T10:06:46;18.60;99.90
4725;DHT22;2376;53.544;10.226;2023-07-02T10:09:15;18.70;99.90
4725;DHT22;2376;53.544;10.226;2023-07-02T10:11:43;18.90;99.90
4725;DHT22;2376;53.544;10.226;2023-07-02T10:14:10;19.00;99.90
4725;DHT22;2376;53.544;10.226;2023-07-02T10:16:49;19.10;99.90
4725;DHT22;2376;53.544;10.226;2023-07-02T10:19:16;19.30;99.90
4725;DHT22;2376;53.544;10.226;2023-07-02T10:21:42;19.30;99.90
4725;DHT22;2376;53.544;10.226;2023-07-02T10:24:12;19.30;99.90
4725;DHT22;2376;53.544;10.226;2023-07-02T10:26:51;19.40;99.90
4725;DHT22;2376;53.544;10.226;2023-07-02T10:29:19;19.40;99.90
4725;DHT22;2376;53.544;10.226;2023-07-02T10:31:48;19.40;99.90
4725;DHT22;2376;53.544;10.226;2023-07-02T10:34:15;19.60;99.90
4725;DHT22;2376;53.544;10.226;2023-07-02T10:36:42;19.80;99.90
4725;DHT22;2376;53.544;10.226;2023-07-02T10:39:09;20.00;99.90
4725;DHT22;2376;53.544;10.226;2023-07-02T10:41:35;20.00;99.90
4725;DHT22;2376;53.544;10.226;2023-07-02T10:44:07;20.10;99.90
4725;DHT22;2376;53.544;10.226;2023-07-02T10:46:34;20.10;99.90
4725;DHT22;2376;53.544;10.226;2023-07-02T10:49:01;20.10;99.90
4725;DHT22;2376;53.544;10.226;2023-07-02T10:51:28;20.10;97.40
4725;DHT22;2376;53.544;10.226;2023-07-02T10:53:58;19.90;96.10
4725;DHT22;2376;53.544;10.226;2023-07-02T10:56:25;19.80;96.60
4725;DHT22;2376;53.544;10.226;2023-07-02T10:58:52;19.70;97.50
4725;DHT22;2376;53.544;10.226;2023-07-02T11:01:24;19.60;99.40
4725;DHT22;2376;53.544;10.226;2023-07-02T11:03:58;19.50;99.90
4725;DHT22;2376;53.544;10.226;2023-07-02T11:06:25;19.40;99.70
4725;DHT22;2376;53.544;10.226;2023-07-02T11:08:52;19.30;99.90
4725;DHT22;2376;53.544;10.226;2023-07-02T11:11:20;19.20;99.90
4725;DHT22;2376;53.544;10.226;2023-07-02T11:13:48;19.20;99.90
4725;DHT22;2376;53.544;10.226;2023-07-02T11:16:20;19.10;99.90
4725;DHT22;2376;53.544;10.226;2023-07-02T11:18:51;19.10;99.90
4725;DHT22;2376;53.544;10.226;2023-07-02T11:21:18;19.20;99.90
4725;DHT22;2376;53.544;10.226;2023-07-02T11:23:45;19.30;99.90
4725;DHT22;2376;53.544;10.226;2023-07-02T11:26:11;19.30;99.90
4725;DHT22;2376;53.544;10.226;2023-07-02T11:28:48;19.40;99.90
4725;DHT22;2376;53.544;10.226;2023-07-02T11:31:24;19.60;99.90
4725;DHT22;2376;53.544;10.226;2023-07-02T11:33:52;19.70;99.90
4725;DHT22;2376;53.544;10.226;2023-07-02T11:36:23;20.00;99.90
4725;DHT22;2376;53.544;10.226;2023-07-02T11:38:51;20.20;99.60
4725;DHT22;2376;53.544;10.226;2023-07-02T11:41:18;20.40;98.90
4725;DHT22;2376;53.544;10.226;2023-07-02T11:43:45;20.50;98.10
4725;DHT22;2376;53.544;10.226;2023-07-02T11:46:13;20.60;97.00
4725;DHT22;2376;53.544;10.226;2023-07-02T11:48:40;20.60;96.20
4725;DHT22;2376;53.544;10.226;2023-07-02T11:51:08;20.70;96.30
4725;DHT22;2376;53.544;10.226;2023-07-02T11:53:35;20.80;95.90
4725;DHT22;2376;53.544;10.226;2023-07-02T11:56:02;20.80;93.00
4725;DHT22;2376;53.544;10.226;2023-07-02T11:58:28;20.90;92.10
4725;DHT22;2376;53.544;10.226;2023-07-02T12:00:55;21.00;88.20
4725;DHT22;2376;53.544;10.226;2023-07-02T12:03:22;21.10;82.90
4725;DHT22;2376;53.544;10.226;2023-07-02T12:05:48;21.00;79.20
4725;DHT22;2376;53.544;10.226;2023-07-02T12:08:16;21.00;76.60
4725;DHT22;2376;53.544;10.226;2023-07-02T12:10:43;21.00;76.00
4725;DHT22;2376;53.544;10.226;2023-07-02T12:13:10;21.00;75.10
4725;DHT22;2376;53.544;10.226;2023-07-02T12:15:37;20.90;74.40
4725;DHT22;2376;53.544;10.226;2023-07-02T12:18:03;20.80;75.10
4725;DHT22;2376;53.544;10.226;2023-07-02T12:20:30;20.80;75.90
4725;DHT22;2376;53.544;10.226;2023-07-02T12:22:57;20.80;75.80
4725;DHT22;2376;53.544;10.226;2023-07-02T12:25:25;20.70;73.60
4725;DHT22;2376;53.544;10.226;2023-07-02T12:27:52;20.60;74.70
4725;DHT22;2376;53.544;10.226;2023-07-02T12:30:19;20.50;73.90
4725;DHT22;2376;53.544;10.226;2023-07-02T12:32:46;20.50;74.40
4725;DHT22;2376;53.544;10.226;2023-07-02T12:35:12;20.50;75.20
4725;DHT22;2376;53.544;10.226;2023-07-02T12:37:43;20.40;79.80
4725;DHT22;2376;53.544;10.226;2023-07-02T12:40:11;20.40;82.40
4725;DHT22;2376;53.544;10.226;2023-07-02T12:42:40;20.50;80.90
4725;DHT22;2376;53.544;10.226;2023-07-02T12:45:08;20.60;82.40
4725;DHT22;2376;53.544;10.226;2023-07-02T12:47:35;20.70;80.60
4725;DHT22;2376;53.544;10.226;2023-07-02T12:50:01;20.70;75.60
4725;DHT22;2376;53.544;10.226;2023-07-02T12:52:28;20.70;75.30
4725;DHT22;2376;53.544;10.226;2023-07-02T12:54:55;20.70;75.50
4725;DHT22;2376;53.544;10.226;2023-07-02T12:57:22;20.90;78.00
4725;DHT22;2376;53.544;10.226;2023-07-02T12:59:50;20.90;75.60
4725;DHT22;2376;53.544;10.226;2023-07-02T13:02:16;20.90;71.20
4725;DHT22;2376;53.544;10.226;2023-07-02T13:04:43;20.90;71.20
4725;DHT22;2376;53.544;10.226;2023-07-02T13:07:10;21.00;71.50
4725;DHT22;2376;53.544;10.226;2023-07-02T13:09:37;21.10;71.20
4725;DHT22;2376;53.544;10.226;2023-07-02T13:12:05;21.20;71.40
4725;DHT22;2376;53.544;10.226;2023-07-02T13:14:31;21.30;71.20
4725;DHT22;2376;53.544;10.226;2023-07-02T13:17:00;21.40;71.30
4725;DHT22;2376;53.544;10.226;2023-07-02T13:19:28;21.40;70.60
4725;DHT22;2376;53.544;10.226;2023-07-02T13:21:55;21.40;69.50
4725;DHT22;2376;53.544;10.226;2023-07-02T13:24:22;21.30;67.50
4725;DHT22;2376;53.544;10.226;2023-07-02T13:26:48;21.20;67.60
4725;DHT22;2376;53.544;10.226;2023-07-02T13:29:15;21.20;68.50
4725;DHT22;2376;53.544;10.226;2023-07-02T13:31:42;21.10;69.20
4725;DHT22;2376;53.544;10.226;2023-07-02T13:34:10;21.10;70.20
4725;DHT22;2376;53.544;10.226;2023-07-02T13:36:37;21.10;71.00
4725;DHT22;2376;53.544;10.226;2023-07-02T13:39:03;21.10;72.00
4725;DHT22;2376;53.544;10.226;2023-07-02T13:41:30;21.10;71.30
4725;DHT22;2376;53.544;10.226;2023-07-02T13:43:57;21.00;71.60
4725;DHT22;2376;53.544;10.226;2023-07-02T13:46:23;21.00;71.00
4725;DHT22;2376;53.544;10.226;2023-07-02T13:48:50;20.90;71.10
4725;DHT22;2376;53.544;10.226;2023-07-02T13:51:18;20.90;72.00
4725;DHT22;2376;53.544;10.226;2023-07-02T13:53:45;20.90;72.90
4725;DHT22;2376;53.544;10.226;2023-07-02T13:56:11;20.90;72.80
4725;DHT22;2376;53.544;10.226;2023-07-02T13:59:02;21.10;72.80
4725;DHT22;2376;53.544;10.226;2023-07-02T14:01:29;21.10;66.90
4725;DHT22;2376;53.544;10.226;2023-07-02T14:03:56;21.10;66.40
4725;DHT22;2376;53.544;10.226;2023-07-02T14:06:22;21.10;65.90
4725;DHT22;2376;53.544;10.226;2023-07-02T14:08:49;21.10;66.10
4725;DHT22;2376;53.544;10.226;2023-07-02T14:11:16;21.10;66.40
4725;DHT22;2376;53.544;10.226;2023-07-02T14:13:43;21.00;67.60
4725;DHT22;2376;53.544;10.226;2023-07-02T14:16:11;21.10;66.70
4725;DHT22;2376;53.544;10.226;2023-07-02T14:18:37;21.00;67.20
4725;DHT22;2376;53.544;10.226;2023-07-02T14:21:04;21.00;68.80
4725;DHT22;2376;53.544;10.226;2023-07-02T14:23:31;21.00;70.10
4725;DHT22;2376;53.544;10.226;2023-07-02T14:25:58;20.90;70.50
4725;DHT22;2376;53.544;10.226;2023-07-02T14:28:25;21.00;71.40
4725;DHT22;2376;53.544;10.226;2023-07-02T14:30:58;21.10;71.60
4725;DHT22;2376;53.544;10.226;2023-07-02T14:33:28;21.10;72.00
4725;DHT22;2376;53.544;10.226;2023-07-02T14:35:54;21.20;72.00
4725;DHT22;2376;53.544;10.226;2023-07-02T14:38:22;21.30;68.90
4725;DHT22;2376;53.544;10.226;2023-07-02T14:40:49;21.40;68.50
4725;DHT22;2376;53.544;10.226;2023-07-02T14:43:16;21.50;67.20
4725;DHT22;2376;53.544;10.226;2023-07-02T14:45:45;21.40;66.00
4725;DHT22;2376;53.544;10.226;2023-07-02T14:48:12;21.40;65.30
4725;DHT22;2376;53.544;10.226;2023-07-02T14:50:44;21.30;66.20
4725;DHT22;2376;53.544;10.226;2023-07-02T14:53:11;21.10;66.30
4725;DHT22;2376;53.544;10.226;2023-07-02T14:55:39;21.10;67.00
4725;DHT22;2376;53.544;10.226;2023-07-02T14:58:06;21.10;67.30
4725;DHT22;2376;53.544;10.226;2023-07-02T15:00:32;21.10;66.70
4725;DHT22;2376;53.544;10.226;2023-07-02T15:03:00;21.00;66.20
4725;DHT22;2376;53.544;10.226;2023-07-02T15:05:27;20.90;65.80
4725;DHT22;2376;53.544;10.226;2023-07-02T15:07:55;20.80;65.80
4725;DHT22;2376;53.544;10.226;2023-07-02T15:10:22;20.80;66.20
4725;DHT22;2376;53.544;10.226;2023-07-02T15:12:48;20.80;66.00
4725;DHT22;2376;53.544;10.226;2023-07-02T15:15:15;20.80;66.40
4725;DHT22;2376;53.544;10.226;2023-07-02T15:17:42;20.80;66.30
4725;DHT22;2376;53.544;10.226;2023-07-02T15:20:09;21.00;65.90
4725;DHT22;2376;53.544;10.226;2023-07-02T15:22:37;21.30;64.90
4725;DHT22;2376;53.544;10.226;2023-07-02T15:25:06;21.50;64.80
4725;DHT22;2376;53.544;10.226;2023-07-02T15:27:33;21.50;63.10
4725;DHT22;2376;53.544;10.226;2023-07-02T15:29:59;21.60;62.80
4725;DHT22;2376;53.544;10.226;2023-07-02T15:32:26;21.70;63.10
4725;DHT22;2376;53.544;10.226;2023-07-02T15:34:53;21.60;61.50
4725;DHT22;2376;53.544;10.226;2023-07-02T15:37:20;21.60;61.20
4725;DHT22;2376;53.544;10.226;2023-07-02T15:39:46;21.50;59.80
4725;DHT22;2376;53.544;10.226;2023-07-02T15:42:14;21.40;59.60
4725;DHT22;2376;53.544;10.226;2023-07-02T15:44:41;21.40;59.90
4725;DHT22;2376;53.544;10.226;2023-07-02T15:47:08;21.30;60.90